Kezdőlap
METAR-TAF:

METAR-TAF

Repülőterek :

Charles City, Iowa, Amerikai Egyesült Államok

földrajzi szélesség: 43-04N, földrajzi hosszúság: 092-37W, magasság: 343 m

Jelenlegi meteorológiai megfigyelések

A jelentés 27 perccel ezelõtt készült, 07:55 UTC
Északnyugati szél 5 kt
Hőmérséklet -7°C
Páratartalom 93%
Légköri nyomás 1020 hPa
Látótávolság: 16.1 km
Szórványos felhőzet 2300 lábon
Borult 3000 lábon

METAR: KCCY 270755Z AUTO 31005KT 10SM SCT023 OVC030 M07/M08 A3012 RMK AO2

Idő: 02:22 (08:22 UTC)


TAF: hiányzik

Meteorológiai megfigyelések és előrejelzések több, mint 4000 repülőtéren (METAR és TAF jelentéseket).

A térképen piros és sárga pontok jelzik az elérhető meteorológiai állomásokat.

Mozgassa az egeret a pont fölött, hogy megjelenjen az állomás neve.

Azután kattintson az időjárási megfigyelések és előrejelzések megtekintéséhez.

A térkép megváltoztatása: kattintson a fekete keresztel jelölt zöld gombra ráközelítéshez, a vonallal jelölt zöld gombra távolításhoz, vagy a zöld nyilakra a szomszédos térképek eléréséhez.


METAR-TAF: